sensor_id;sensor_type;location;lat;lon;timestamp;P1;durP1;ratioP1;P2;durP2;ratioP2
77944;SDS011;67142;47.404;-1.384;2023-05-10T00:00:35;17.10;;;11.67;;
77944;SDS011;67142;47.404;-1.384;2023-05-10T00:03:01;16.65;;;12.27;;
77944;SDS011;67142;47.404;-1.384;2023-05-10T00:05:29;14.63;;;12.05;;
77944;SDS011;67142;47.404;-1.384;2023-05-10T00:07:55;13.98;;;12.02;;
77944;SDS011;67142;47.404;-1.384;2023-05-10T00:10:21;24.17;;;12.80;;
77944;SDS011;67142;47.404;-1.384;2023-05-10T00:12:47;16.50;;;11.67;;
77944;SDS011;67142;47.404;-1.384;2023-05-10T00:15:13;15.73;;;12.38;;
77944;SDS011;67142;47.404;-1.384;2023-05-10T00:17:39;18.15;;;12.50;;
77944;SDS011;67142;47.404;-1.384;2023-05-10T00:20:05;16.45;;;12.20;;
77944;SDS011;67142;47.404;-1.384;2023-05-10T00:22:32;17.23;;;12.55;;
77944;SDS011;67142;47.404;-1.384;2023-05-10T00:24:58;17.60;;;12.17;;
77944;SDS011;67142;47.404;-1.384;2023-05-10T00:27:24;15.75;;;11.90;;
77944;SDS011;67142;47.404;-1.384;2023-05-10T00:29:50;20.60;;;12.73;;
77944;SDS011;67142;47.404;-1.384;2023-05-10T00:32:16;15.82;;;12.23;;
77944;SDS011;67142;47.404;-1.384;2023-05-10T00:34:42;15.32;;;12.15;;
77944;SDS011;67142;47.404;-1.384;2023-05-10T00:37:08;15.57;;;12.20;;
77944;SDS011;67142;47.404;-1.384;2023-05-10T00:39:34;14.57;;;12.02;;
77944;SDS011;67142;47.404;-1.384;2023-05-10T00:42:00;17.65;;;12.73;;
77944;SDS011;67142;47.404;-1.384;2023-05-10T00:44:26;13.20;;;11.93;;
77944;SDS011;67142;47.404;-1.384;2023-05-10T00:46:52;17.52;;;12.77;;
77944;SDS011;67142;47.404;-1.384;2023-05-10T00:49:19;13.40;;;12.00;;
77944;SDS011;67142;47.404;-1.384;2023-05-10T00:51:45;20.63;;;12.55;;
77944;SDS011;67142;47.404;-1.384;2023-05-10T00:54:11;19.58;;;12.90;;
77944;SDS011;67142;47.404;-1.384;2023-05-10T00:56:37;15.75;;;12.75;;
77944;SDS011;67142;47.404;-1.384;2023-05-10T00:59:03;18.63;;;12.55;;
77944;SDS011;67142;47.404;-1.384;2023-05-10T01:01:29;15.27;;;12.03;;
77944;SDS011;67142;47.404;-1.384;2023-05-10T01:03:56;15.50;;;12.32;;
77944;SDS011;67142;47.404;-1.384;2023-05-10T01:06:22;14.38;;;12.20;;
77944;SDS011;67142;47.404;-1.384;2023-05-10T01:08:48;16.67;;;12.45;;
77944;SDS011;67142;47.404;-1.384;2023-05-10T01:11:14;17.67;;;11.98;;
77944;SDS011;67142;47.404;-1.384;2023-05-10T01:13:41;17.60;;;12.30;;
77944;SDS011;67142;47.404;-1.384;2023-05-10T01:16:07;14.20;;;12.60;;
77944;SDS011;67142;47.404;-1.384;2023-05-10T01:18:38;16.92;;;13.55;;
77944;SDS011;67142;47.404;-1.384;2023-05-10T01:42:32;17.20;;;12.43;;
77944;SDS011;67142;47.404;-1.384;2023-05-10T01:45:08;20.05;;;13.07;;
77944;SDS011;67142;47.404;-1.384;2023-05-10T01:47:44;16.58;;;12.57;;
77944;SDS011;67142;47.404;-1.384;2023-05-10T01:55:35;17.80;;;12.80;;
77944;SDS011;67142;47.404;-1.384;2023-05-10T01:58:09;16.02;;;12.45;;
77944;SDS011;67142;47.404;-1.384;2023-05-10T02:00:35;20.23;;;12.77;;
77944;SDS011;67142;47.404;-1.384;2023-05-10T02:03:04;15.23;;;12.43;;
77944;SDS011;67142;47.404;-1.384;2023-05-10T02:05:31;14.68;;;12.15;;
77944;SDS011;67142;47.404;-1.384;2023-05-10T02:07:58;12.90;;;11.67;;
77944;SDS011;67142;47.404;-1.384;2023-05-10T02:10:26;15.60;;;11.88;;
77944;SDS011;67142;47.404;-1.384;2023-05-10T02:12:52;14.57;;;12.25;;
77944;SDS011;67142;47.404;-1.384;2023-05-10T02:15:23;13.52;;;12.18;;
77944;SDS011;67142;47.404;-1.384;2023-05-10T02:17:49;15.45;;;12.35;;
77944;SDS011;67142;47.404;-1.384;2023-05-10T02:20:15;15.23;;;12.13;;
77944;SDS011;67142;47.404;-1.384;2023-05-10T02:22:42;21.10;;;12.88;;
77944;SDS011;67142;47.404;-1.384;2023-05-10T02:25:08;19.52;;;12.52;;
77944;SDS011;67142;47.404;-1.384;2023-05-10T02:27:36;17.50;;;12.50;;
77944;SDS011;67142;47.404;-1.384;2023-05-10T02:30:02;14.38;;;12.30;;
77944;SDS011;67142;47.404;-1.384;2023-05-10T02:32:29;19.37;;;12.47;;
77944;SDS011;67142;47.404;-1.384;2023-05-10T02:34:55;17.35;;;12.45;;
77944;SDS011;67142;47.404;-1.384;2023-05-10T02:37:22;20.13;;;12.70;;
77944;SDS011;67142;47.404;-1.384;2023-05-10T02:39:52;17.45;;;12.50;;
77944;SDS011;67142;47.404;-1.384;2023-05-10T02:42:19;24.50;;;13.57;;
77944;SDS011;67142;47.404;-1.384;2023-05-10T02:44:47;14.60;;;12.20;;
77944;SDS011;67142;47.404;-1.384;2023-05-10T02:47:14;18.80;;;11.88;;
77944;SDS011;67142;47.404;-1.384;2023-05-10T02:49:40;17.45;;;12.30;;
77944;SDS011;67142;47.404;-1.384;2023-05-10T02:52:06;19.08;;;12.20;;
77944;SDS011;67142;47.404;-1.384;2023-05-10T02:54:35;20.92;;;12.88;;
77944;SDS011;67142;47.404;-1.384;2023-05-10T02:57:05;18.43;;;11.90;;
77944;SDS011;67142;47.404;-1.384;2023-05-10T02:59:32;23.08;;;13.05;;
77944;SDS011;67142;47.404;-1.384;2023-05-10T03:01:59;17.45;;;12.30;;
77944;SDS011;67142;47.404;-1.384;2023-05-10T03:04:25;21.05;;;12.68;;
77944;SDS011;67142;47.404;-1.384;2023-05-10T03:06:51;17.20;;;12.68;;
77944;SDS011;67142;47.404;-1.384;2023-05-10T03:09:17;21.50;;;12.57;;
77944;SDS011;67142;47.404;-1.384;2023-05-10T03:16:40;20.45;;;12.10;;
77944;SDS011;67142;47.404;-1.384;2023-05-10T03:21:36;16.60;;;12.57;;
77944;SDS011;67142;47.404;-1.384;2023-05-10T03:24:05;19.15;;;12.15;;
77944;SDS011;67142;47.404;-1.384;2023-05-10T03:26:32;20.02;;;12.90;;
77944;SDS011;67142;47.404;-1.384;2023-05-10T03:28:59;25.02;;;12.60;;
77944;SDS011;67142;47.404;-1.384;2023-05-10T03:31:26;18.15;;;12.48;;
77944;SDS011;67142;47.404;-1.384;2023-05-10T03:33:52;18.57;;;12.10;;
77944;SDS011;67142;47.404;-1.384;2023-05-10T03:36:18;19.05;;;12.15;;
77944;SDS011;67142;47.404;-1.384;2023-05-10T03:38:44;21.65;;;12.63;;
77944;SDS011;67142;47.404;-1.384;2023-05-10T03:41:11;18.75;;;12.63;;
77944;SDS011;67142;47.404;-1.384;2023-05-10T03:43:37;18.60;;;13.32;;
77944;SDS011;67142;47.404;-1.384;2023-05-10T03:46:03;19.77;;;12.43;;
77944;SDS011;67142;47.404;-1.384;2023-05-10T03:48:30;18.30;;;12.05;;
77944;SDS011;67142;47.404;-1.384;2023-05-10T03:50:56;16.60;;;12.50;;
77944;SDS011;67142;47.404;-1.384;2023-05-10T03:53:22;17.20;;;12.63;;
77944;SDS011;67142;47.404;-1.384;2023-05-10T03:55:48;14.85;;;12.80;;
77944;SDS011;67142;47.404;-1.384;2023-05-10T03:58:14;19.20;;;12.70;;
77944;SDS011;67142;47.404;-1.384;2023-05-10T04:00:40;24.83;;;13.05;;
77944;SDS011;67142;47.404;-1.384;2023-05-10T04:03:09;19.17;;;12.90;;
77944;SDS011;67142;47.404;-1.384;2023-05-10T04:05:36;20.15;;;12.73;;
77944;SDS011;67142;47.404;-1.384;2023-05-10T04:08:02;19.90;;;13.55;;
77944;SDS011;67142;47.404;-1.384;2023-05-10T04:10:28;17.50;;;12.77;;
77944;SDS011;67142;47.404;-1.384;2023-05-10T04:12:54;21.52;;;12.65;;
77944;SDS011;67142;47.404;-1.384;2023-05-10T04:15:20;18.63;;;13.13;;
77944;SDS011;67142;47.404;-1.384;2023-05-10T04:17:46;21.92;;;12.70;;
77944;SDS011;67142;47.404;-1.384;2023-05-10T04:20:12;16.25;;;12.75;;
77944;SDS011;67142;47.404;-1.384;2023-05-10T04:22:38;25.10;;;12.83;;
77944;SDS011;67142;47.404;-1.384;2023-05-10T04:25:05;22.85;;;13.70;;
77944;SDS011;67142;47.404;-1.384;2023-05-10T04:27:32;21.23;;;13.00;;
77944;SDS011;67142;47.404;-1.384;2023-05-10T04:29:58;26.75;;;13.38;;
77944;SDS011;67142;47.404;-1.384;2023-05-10T04:32:24;18.60;;;13.02;;
77944;SDS011;67142;47.404;-1.384;2023-05-10T04:34:50;25.00;;;12.90;;
77944;SDS011;67142;47.404;-1.384;2023-05-10T04:37:17;20.58;;;12.98;;
77944;SDS011;67142;47.404;-1.384;2023-05-10T04:39:43;21.20;;;13.38;;
77944;SDS011;67142;47.404;-1.384;2023-05-10T04:42:09;21.52;;;12.77;;
77944;SDS011;67142;47.404;-1.384;2023-05-10T04:44:36;18.58;;;12.30;;
77944;SDS011;67142;47.404;-1.384;2023-05-10T04:47:02;15.70;;;12.57;;
77944;SDS011;67142;47.404;-1.384;2023-05-10T04:49:28;20.30;;;12.90;;
77944;SDS011;67142;47.404;-1.384;2023-05-10T04:51:54;17.02;;;12.70;;
77944;SDS011;67142;47.404;-1.384;2023-05-10T04:54:21;18.00;;;12.57;;
77944;SDS011;67142;47.404;-1.384;2023-05-10T04:56:47;21.83;;;13.05;;
77944;SDS011;67142;47.404;-1.384;2023-05-10T04:59:13;18.87;;;12.57;;
77944;SDS011;67142;47.404;-1.384;2023-05-10T05:01:39;22.55;;;12.90;;
77944;SDS011;67142;47.404;-1.384;2023-05-10T05:04:05;15.55;;;12.73;;
77944;SDS011;67142;47.404;-1.384;2023-05-10T05:06:31;22.52;;;13.60;;
77944;SDS011;67142;47.404;-1.384;2023-05-10T05:08:57;20.92;;;13.70;;
77944;SDS011;67142;47.404;-1.384;2023-05-10T05:11:24;19.83;;;12.80;;
77944;SDS011;67142;47.404;-1.384;2023-05-10T05:13:50;21.08;;;12.85;;
77944;SDS011;67142;47.404;-1.384;2023-05-10T05:16:16;15.80;;;12.63;;
77944;SDS011;67142;47.404;-1.384;2023-05-10T05:18:42;20.95;;;12.60;;
77944;SDS011;67142;47.404;-1.384;2023-05-10T05:21:15;14.48;;;12.50;;
77944;SDS011;67142;47.404;-1.384;2023-05-10T05:23:41;18.53;;;12.37;;
77944;SDS011;67142;47.404;-1.384;2023-05-10T05:26:07;26.77;;;13.18;;
77944;SDS011;67142;47.404;-1.384;2023-05-10T05:28:33;18.52;;;12.25;;
77944;SDS011;67142;47.404;-1.384;2023-05-10T05:31:02;23.13;;;13.20;;
77944;SDS011;67142;47.404;-1.384;2023-05-10T05:33:28;18.80;;;12.98;;
77944;SDS011;67142;47.404;-1.384;2023-05-10T05:35:54;16.43;;;12.30;;
77944;SDS011;67142;47.404;-1.384;2023-05-10T05:38:20;20.27;;;12.77;;
77944;SDS011;67142;47.404;-1.384;2023-05-10T05:40:46;20.30;;;13.00;;
77944;SDS011;67142;47.404;-1.384;2023-05-10T05:43:12;23.15;;;13.35;;
77944;SDS011;67142;47.404;-1.384;2023-05-10T05:45:38;21.10;;;12.77;;
77944;SDS011;67142;47.404;-1.384;2023-05-10T05:48:04;20.83;;;13.03;;
77944;SDS011;67142;47.404;-1.384;2023-05-10T05:50:30;19.33;;;13.65;;
77944;SDS011;67142;47.404;-1.384;2023-05-10T05:52:57;15.20;;;12.95;;
77944;SDS011;67142;47.404;-1.384;2023-05-10T05:55:23;19.65;;;13.00;;
77944;SDS011;67142;47.404;-1.384;2023-05-10T05:57:50;19.50;;;13.60;;
77944;SDS011;67142;47.404;-1.384;2023-05-10T06:00:17;21.47;;;12.87;;
77944;SDS011;67142;47.404;-1.384;2023-05-10T06:02:43;14.77;;;13.23;;
77944;SDS011;67142;47.404;-1.384;2023-05-10T06:05:09;21.45;;;14.00;;
77944;SDS011;67142;47.404;-1.384;2023-05-10T06:07:35;18.95;;;13.23;;
77944;SDS011;67142;47.404;-1.384;2023-05-10T06:10:01;23.45;;;13.73;;
77944;SDS011;67142;47.404;-1.384;2023-05-10T06:12:28;17.50;;;12.77;;
77944;SDS011;67142;47.404;-1.384;2023-05-10T06:14:54;20.45;;;13.77;;
77944;SDS011;67142;47.404;-1.384;2023-05-10T06:17:20;20.83;;;13.50;;
77944;SDS011;67142;47.404;-1.384;2023-05-10T06:19:46;19.15;;;12.90;;
77944;SDS011;67142;47.404;-1.384;2023-05-10T06:22:12;21.67;;;14.13;;
77944;SDS011;67142;47.404;-1.384;2023-05-10T06:24:38;17.87;;;13.43;;
77944;SDS011;67142;47.404;-1.384;2023-05-10T06:27:05;18.35;;;13.10;;
77944;SDS011;67142;47.404;-1.384;2023-05-10T06:29:31;23.23;;;14.07;;
77944;SDS011;67142;47.404;-1.384;2023-05-10T06:31:57;20.65;;;13.63;;
77944;SDS011;67142;47.404;-1.384;2023-05-10T06:34:23;19.60;;;14.18;;
77944;SDS011;67142;47.404;-1.384;2023-05-10T06:36:49;16.20;;;13.00;;
77944;SDS011;67142;47.404;-1.384;2023-05-10T06:39:16;17.27;;;12.77;;
77944;SDS011;67142;47.404;-1.384;2023-05-10T06:41:42;23.67;;;13.73;;
77944;SDS011;67142;47.404;-1.384;2023-05-10T06:44:08;20.23;;;13.60;;
77944;SDS011;67142;47.404;-1.384;2023-05-10T06:46:34;20.98;;;13.73;;
77944;SDS011;67142;47.404;-1.384;2023-05-10T06:49:01;16.90;;;13.43;;
77944;SDS011;67142;47.404;-1.384;2023-05-10T06:51:27;23.15;;;13.18;;
77944;SDS011;67142;47.404;-1.384;2023-05-10T06:53:53;20.48;;;13.23;;
77944;SDS011;67142;47.404;-1.384;2023-05-10T06:56:19;23.77;;;14.35;;
77944;SDS011;67142;47.404;-1.384;2023-05-10T06:58:46;16.60;;;13.50;;
77944;SDS011;67142;47.404;-1.384;2023-05-10T07:01:12;21.10;;;14.40;;
77944;SDS011;67142;47.404;-1.384;2023-05-10T07:03:38;18.15;;;13.50;;
77944;SDS011;67142;47.404;-1.384;2023-05-10T07:06:04;21.95;;;14.20;;
77944;SDS011;67142;47.404;-1.384;2023-05-10T07:08:32;20.08;;;14.38;;
77944;SDS011;67142;47.404;-1.384;2023-05-10T07:11:02;18.42;;;13.60;;
77944;SDS011;67142;47.404;-1.384;2023-05-10T07:13:29;16.03;;;13.30;;
77944;SDS011;67142;47.404;-1.384;2023-05-10T07:15:55;19.77;;;14.52;;
77944;SDS011;67142;47.404;-1.384;2023-05-10T07:18:21;17.65;;;13.32;;
77944;SDS011;67142;47.404;-1.384;2023-05-10T07:34:11;19.73;;;13.80;;
77944;SDS011;67142;47.404;-1.384;2023-05-10T07:42:30;21.48;;;12.73;;
77944;SDS011;67142;47.404;-1.384;2023-05-10T07:44:56;18.45;;;13.25;;
77944;SDS011;67142;47.404;-1.384;2023-05-10T07:47:22;19.17;;;13.00;;
77944;SDS011;67142;47.404;-1.384;2023-05-10T07:49:48;15.88;;;12.80;;
77944;SDS011;67142;47.404;-1.384;2023-05-10T07:52:14;20.60;;;12.82;;
77944;SDS011;67142;47.404;-1.384;2023-05-10T07:54:41;17.85;;;13.02;;
77944;SDS011;67142;47.404;-1.384;2023-05-10T07:57:07;16.35;;;13.43;;
77944;SDS011;67142;47.404;-1.384;2023-05-10T07:59:33;22.30;;;13.20;;
77944;SDS011;67142;47.404;-1.384;2023-05-10T08:01:59;14.73;;;13.20;;
77944;SDS011;67142;47.404;-1.384;2023-05-10T08:04:25;17.77;;;13.82;;
77944;SDS011;67142;47.404;-1.384;2023-05-10T08:06:51;19.05;;;13.32;;
77944;SDS011;67142;47.404;-1.384;2023-05-10T08:09:17;15.57;;;13.68;;
77944;SDS011;67142;47.404;-1.384;2023-05-10T08:11:48;14.77;;;13.23;;
77944;SDS011;67142;47.404;-1.384;2023-05-10T08:14:14;19.65;;;13.48;;
77944;SDS011;67142;47.404;-1.384;2023-05-10T08:16:40;17.98;;;13.60;;
77944;SDS011;67142;47.404;-1.384;2023-05-10T08:19:06;15.32;;;13.48;;
77944;SDS011;67142;47.404;-1.384;2023-05-10T08:21:32;16.67;;;13.93;;
77944;SDS011;67142;47.404;-1.384;2023-05-10T08:23:58;15.07;;;13.50;;
77944;SDS011;67142;47.404;-1.384;2023-05-10T08:26:24;14.77;;;13.23;;
77944;SDS011;67142;47.404;-1.384;2023-05-10T08:28:50;16.10;;;13.57;;
77944;SDS011;67142;47.404;-1.384;2023-05-10T08:31:16;15.10;;;13.55;;
77944;SDS011;67142;47.404;-1.384;2023-05-10T08:33:43;17.10;;;13.40;;
77944;SDS011;67142;47.404;-1.384;2023-05-10T08:36:09;20.73;;;13.47;;
77944;SDS011;67142;47.404;-1.384;2023-05-10T08:38:35;17.85;;;13.40;;
77944;SDS011;67142;47.404;-1.384;2023-05-10T08:41:01;18.55;;;14.02;;
77944;SDS011;67142;47.404;-1.384;2023-05-10T08:43:28;16.95;;;13.45;;
77944;SDS011;67142;47.404;-1.384;2023-05-10T08:45:55;15.02;;;13.63;;
77944;SDS011;67142;47.404;-1.384;2023-05-10T08:48:22;17.73;;;13.50;;
77944;SDS011;67142;47.404;-1.384;2023-05-10T08:50:48;19.35;;;13.73;;
77944;SDS011;67142;47.404;-1.384;2023-05-10T08:53:18;19.08;;;13.70;;
77944;SDS011;67142;47.404;-1.384;2023-05-10T08:55:44;15.95;;;13.60;;
77944;SDS011;67142;47.404;-1.384;2023-05-10T08:58:10;15.25;;;13.65;;
77944;SDS011;67142;47.404;-1.384;2023-05-10T09:00:36;16.77;;;13.80;;
77944;SDS011;67142;47.404;-1.384;2023-05-10T09:03:03;15.98;;;13.50;;
77944;SDS011;67142;47.404;-1.384;2023-05-10T09:05:30;14.75;;;13.10;;
77944;SDS011;67142;47.404;-1.384;2023-05-10T09:07:56;15.20;;;13.07;;
77944;SDS011;67142;47.404;-1.384;2023-05-10T09:10:25;15.15;;;13.68;;
77944;SDS011;67142;47.404;-1.384;2023-05-10T09:12:52;16.73;;;13.30;;
77944;SDS011;67142;47.404;-1.384;2023-05-10T09:15:19;16.00;;;14.38;;
77944;SDS011;67142;47.404;-1.384;2023-05-10T09:17:45;19.02;;;14.15;;
77944;SDS011;67142;47.404;-1.384;2023-05-10T09:20:12;16.65;;;13.85;;
77944;SDS011;67142;47.404;-1.384;2023-05-10T09:22:38;15.50;;;13.70;;
77944;SDS011;67142;47.404;-1.384;2023-05-10T09:25:09;17.40;;;13.00;;
77944;SDS011;67142;47.404;-1.384;2023-05-10T09:27:36;14.88;;;13.30;;
77944;SDS011;67142;47.404;-1.384;2023-05-10T09:30:05;15.63;;;13.68;;
77944;SDS011;67142;47.404;-1.384;2023-05-10T09:32:38;19.02;;;13.65;;
77944;SDS011;67142;47.404;-1.384;2023-05-10T09:35:08;14.90;;;13.27;;
77944;SDS011;67142;47.404;-1.384;2023-05-10T09:37:34;15.20;;;13.60;;
77944;SDS011;67142;47.404;-1.384;2023-05-10T09:40:00;17.35;;;13.75;;
77944;SDS011;67142;47.404;-1.384;2023-05-10T09:42:26;16.80;;;14.32;;
77944;SDS011;67142;47.404;-1.384;2023-05-10T09:44:52;15.60;;;13.77;;
77944;SDS011;67142;47.404;-1.384;2023-05-10T09:47:18;15.93;;;14.18;;
77944;SDS011;67142;47.404;-1.384;2023-05-10T09:49:48;14.80;;;13.30;;
77944;SDS011;67142;47.404;-1.384;2023-05-10T09:52:15;15.30;;;13.70;;
77944;SDS011;67142;47.404;-1.384;2023-05-10T09:54:44;15.52;;;14.02;;
77944;SDS011;67142;47.404;-1.384;2023-05-10T09:57:20;15.35;;;13.85;;
77944;SDS011;67142;47.404;-1.384;2023-05-10T09:59:47;15.00;;;13.60;;
77944;SDS011;67142;47.404;-1.384;2023-05-10T10:02:13;15.20;;;13.70;;
77944;SDS011;67142;47.404;-1.384;2023-05-10T10:04:39;16.40;;;13.45;;
77944;SDS011;67142;47.404;-1.384;2023-05-10T10:07:05;17.67;;;14.48;;
77944;SDS011;67142;47.404;-1.384;2023-05-10T10:09:32;15.77;;;14.13;;
77944;SDS011;67142;47.404;-1.384;2023-05-10T10:11:59;15.70;;;14.07;;
77944;SDS011;67142;47.404;-1.384;2023-05-10T10:14:25;16.30;;;14.70;;
77944;SDS011;67142;47.404;-1.384;2023-05-10T10:16:51;15.30;;;13.80;;
77944;SDS011;67142;47.404;-1.384;2023-05-10T10:19:20;15.48;;;13.88;;
77944;SDS011;67142;47.404;-1.384;2023-05-10T10:21:47;15.40;;;13.90;;
77944;SDS011;67142;47.404;-1.384;2023-05-10T10:24:13;15.85;;;14.27;;
77944;SDS011;67142;47.404;-1.384;2023-05-10T10:26:39;15.20;;;13.93;;
77944;SDS011;67142;47.404;-1.384;2023-05-10T10:29:31;15.13;;;13.65;;
77944;SDS011;67142;47.404;-1.384;2023-05-10T10:32:09;15.88;;;14.50;;
77944;SDS011;67142;47.404;-1.384;2023-05-10T10:34:38;15.05;;;13.65;;
77944;SDS011;67142;47.404;-1.384;2023-05-10T10:37:05;15.30;;;13.80;;
77944;SDS011;67142;47.404;-1.384;2023-05-10T10:39:31;14.73;;;13.37;;
77944;SDS011;67142;47.404;-1.384;2023-05-10T10:41:58;15.18;;;13.82;;
77944;SDS011;67142;47.404;-1.384;2023-05-10T10:47:07;13.68;;;12.52;;
77944;SDS011;67142;47.404;-1.384;2023-05-10T10:52:13;14.47;;;13.17;;
77944;SDS011;67142;47.404;-1.384;2023-05-10T10:54:40;14.52;;;13.43;;
77944;SDS011;67142;47.404;-1.384;2023-05-10T10:57:10;15.50;;;14.00;;
77944;SDS011;67142;47.404;-1.384;2023-05-10T10:59:41;15.85;;;14.20;;
77944;SDS011;67142;47.404;-1.384;2023-05-10T11:02:07;15.05;;;13.75;;
77944;SDS011;67142;47.404;-1.384;2023-05-10T11:04:43;14.30;;;13.10;;
77944;SDS011;67142;47.404;-1.384;2023-05-10T11:07:17;15.05;;;13.65;;
77944;SDS011;67142;47.404;-1.384;2023-05-10T11:09:43;16.02;;;14.63;;
77944;SDS011;67142;47.404;-1.384;2023-05-10T11:12:10;14.80;;;13.32;;
77944;SDS011;67142;47.404;-1.384;2023-05-10T11:14:36;14.80;;;13.50;;
77944;SDS011;67142;47.404;-1.384;2023-05-10T11:17:02;15.47;;;13.97;;
77944;SDS011;67142;47.404;-1.384;2023-05-10T11:20:06;15.68;;;14.10;;
77944;SDS011;67142;47.404;-1.384;2023-05-10T11:22:48;15.93;;;14.05;;
77944;SDS011;67142;47.404;-1.384;2023-05-10T11:25:15;16.95;;;15.55;;
77944;SDS011;67142;47.404;-1.384;2023-05-10T11:27:41;15.88;;;14.40;;
77944;SDS011;67142;47.404;-1.384;2023-05-10T11:30:09;15.40;;;14.10;;
77944;SDS011;67142;47.404;-1.384;2023-05-10T11:32:38;15.80;;;14.40;;
77944;SDS011;67142;47.404;-1.384;2023-05-10T11:35:08;15.88;;;14.57;;
77944;SDS011;67142;47.404;-1.384;2023-05-10T11:37:34;15.63;;;14.30;;
77944;SDS011;67142;47.404;-1.384;2023-05-10T11:40:00;16.40;;;14.90;;
77944;SDS011;67142;47.404;-1.384;2023-05-10T11:42:27;16.40;;;14.83;;
77944;SDS011;67142;47.404;-1.384;2023-05-10T11:44:53;15.63;;;14.40;;
77944;SDS011;67142;47.404;-1.384;2023-05-10T11:47:20;16.50;;;15.10;;
77944;SDS011;67142;47.404;-1.384;2023-05-10T11:49:46;16.70;;;15.20;;
77944;SDS011;67142;47.404;-1.384;2023-05-10T11:52:12;15.98;;;14.57;;
77944;SDS011;67142;47.404;-1.384;2023-05-10T11:54:45;16.13;;;14.57;;
77944;SDS011;67142;47.404;-1.384;2023-05-10T11:57:11;16.02;;;14.50;;
77944;SDS011;67142;47.404;-1.384;2023-05-10T11:59:37;15.90;;;14.43;;
77944;SDS011;67142;47.404;-1.384;2023-05-10T12:02:03;16.58;;;15.07;;
77944;SDS011;67142;47.404;-1.384;2023-05-10T12:04:30;16.08;;;14.80;;
77944;SDS011;67142;47.404;-1.384;2023-05-10T12:06:56;16.47;;;14.97;;
77944;SDS011;67142;47.404;-1.384;2023-05-10T12:09:22;16.30;;;14.95;;
77944;SDS011;67142;47.404;-1.384;2023-05-10T12:11:48;17.38;;;15.68;;
77944;SDS011;67142;47.404;-1.384;2023-05-10T12:14:14;16.95;;;15.23;;
77944;SDS011;67142;47.404;-1.384;2023-05-10T12:16:42;17.33;;;15.82;;
77944;SDS011;67142;47.404;-1.384;2023-05-10T12:19:08;15.63;;;14.27;;
77944;SDS011;67142;47.404;-1.384;2023-05-10T12:21:34;15.32;;;14.02;;
77944;SDS011;67142;47.404;-1.384;2023-05-10T12:24:01;16.63;;;15.13;;
77944;SDS011;67142;47.404;-1.384;2023-05-10T12:26:28;16.08;;;14.73;;
77944;SDS011;67142;47.404;-1.384;2023-05-10T12:28:55;15.80;;;14.60;;
77944;SDS011;67142;47.404;-1.384;2023-05-10T12:31:21;16.03;;;14.63;;
77944;SDS011;67142;47.404;-1.384;2023-05-10T12:33:47;15.60;;;14.20;;
77944;SDS011;67142;47.404;-1.384;2023-05-10T12:36:14;16.30;;;14.82;;
77944;SDS011;67142;47.404;-1.384;2023-05-10T12:38:44;15.80;;;14.30;;
77944;SDS011;67142;47.404;-1.384;2023-05-10T12:41:14;15.65;;;14.15;;
77944;SDS011;67142;47.404;-1.384;2023-05-10T12:43:40;15.60;;;14.10;;
77944;SDS011;67142;47.404;-1.384;2023-05-10T12:46:14;16.48;;;14.00;;
77944;SDS011;67142;47.404;-1.384;2023-05-10T12:48:41;15.85;;;14.27;;
77944;SDS011;67142;47.404;-1.384;2023-05-10T12:51:07;14.93;;;13.73;;
77944;SDS011;67142;47.404;-1.384;2023-05-10T12:53:41;15.00;;;13.80;;
77944;SDS011;67142;47.404;-1.384;2023-05-10T12:56:07;15.03;;;13.53;;
77944;SDS011;67142;47.404;-1.384;2023-05-10T12:58:34;15.43;;;14.10;;
77944;SDS011;67142;47.404;-1.384;2023-05-10T13:01:00;15.55;;;14.25;;
77944;SDS011;67142;47.404;-1.384;2023-05-10T13:03:26;15.43;;;14.02;;
77944;SDS011;67142;47.404;-1.384;2023-05-10T13:05:52;15.13;;;13.85;;
77944;SDS011;67142;47.404;-1.384;2023-05-10T13:08:18;13.63;;;12.70;;
77944;SDS011;67142;47.404;-1.384;2023-05-10T13:10:44;13.60;;;12.60;;
77944;SDS011;67142;47.404;-1.384;2023-05-10T13:13:10;14.35;;;13.30;;
77944;SDS011;67142;47.404;-1.384;2023-05-10T13:15:36;13.43;;;12.43;;
77944;SDS011;67142;47.404;-1.384;2023-05-10T13:18:03;13.90;;;12.90;;
77944;SDS011;67142;47.404;-1.384;2023-05-10T13:20:29;13.60;;;12.60;;
77944;SDS011;67142;47.404;-1.384;2023-05-10T13:22:55;13.88;;;12.77;;
77944;SDS011;67142;47.404;-1.384;2023-05-10T13:25:21;14.10;;;13.10;;
77944;SDS011;67142;47.404;-1.384;2023-05-10T13:27:47;14.23;;;13.13;;
77944;SDS011;67142;47.404;-1.384;2023-05-10T13:30:13;14.57;;;13.43;;
77944;SDS011;67142;47.404;-1.384;2023-05-10T13:32:39;14.33;;;13.33;;
77944;SDS011;67142;47.404;-1.384;2023-05-10T13:35:05;14.23;;;13.02;;
77944;SDS011;67142;47.404;-1.384;2023-05-10T13:37:31;13.80;;;12.70;;
77944;SDS011;67142;47.404;-1.384;2023-05-10T13:40:00;14.25;;;13.10;;
77944;SDS011;67142;47.404;-1.384;2023-05-10T13:42:26;13.88;;;12.70;;
77944;SDS011;67142;47.404;-1.384;2023-05-10T13:44:53;14.07;;;12.90;;
77944;SDS011;67142;47.404;-1.384;2023-05-10T13:47:19;12.90;;;11.90;;
77944;SDS011;67142;47.404;-1.384;2023-05-10T13:49:46;14.15;;;13.15;;
77944;SDS011;67142;47.404;-1.384;2023-05-10T13:52:12;14.10;;;12.95;;
77944;SDS011;67142;47.404;-1.384;2023-05-10T13:54:38;14.73;;;13.68;;
77944;SDS011;67142;47.404;-1.384;2023-05-10T13:57:04;15.00;;;13.70;;
77944;SDS011;67142;47.404;-1.384;2023-05-10T13:59:31;15.25;;;14.05;;
77944;SDS011;67142;47.404;-1.384;2023-05-10T14:01:58;16.00;;;14.73;;
77944;SDS011;67142;47.404;-1.384;2023-05-10T14:04:24;15.90;;;14.70;;
77944;SDS011;67142;47.404;-1.384;2023-05-10T14:06:50;15.20;;;14.07;;
77944;SDS011;67142;47.404;-1.384;2023-05-10T14:09:17;15.57;;;14.13;;
77944;SDS011;67142;47.404;-1.384;2023-05-10T14:11:44;15.40;;;14.07;;
77944;SDS011;67142;47.404;-1.384;2023-05-10T14:14:10;15.00;;;13.95;;
77944;SDS011;67142;47.404;-1.384;2023-05-10T14:16:37;14.98;;;13.93;;
77944;SDS011;67142;47.404;-1.384;2023-05-10T14:19:03;15.43;;;14.23;;
77944;SDS011;67142;47.404;-1.384;2023-05-10T14:21:29;15.40;;;14.30;;
77944;SDS011;67142;47.404;-1.384;2023-05-10T14:23:55;15.00;;;13.90;;
77944;SDS011;67142;47.404;-1.384;2023-05-10T14:26:22;14.65;;;13.63;;
77944;SDS011;67142;47.404;-1.384;2023-05-10T14:28:48;15.13;;;14.02;;
77944;SDS011;67142;47.404;-1.384;2023-05-10T14:31:14;15.40;;;14.15;;
77944;SDS011;67142;47.404;-1.384;2023-05-10T14:33:41;15.40;;;14.00;;
77944;SDS011;67142;47.404;-1.384;2023-05-10T14:36:08;15.73;;;14.45;;
77944;SDS011;67142;47.404;-1.384;2023-05-10T14:38:34;15.65;;;14.38;;
77944;SDS011;67142;47.404;-1.384;2023-05-10T14:41:00;15.23;;;14.13;;
77944;SDS011;67142;47.404;-1.384;2023-05-10T14:43:26;16.20;;;15.00;;
77944;SDS011;67142;47.404;-1.384;2023-05-10T14:45:53;15.70;;;14.40;;
77944;SDS011;67142;47.404;-1.384;2023-05-10T14:48:19;15.80;;;14.60;;
77944;SDS011;67142;47.404;-1.384;2023-05-10T14:50:46;16.50;;;15.23;;
77944;SDS011;67142;47.404;-1.384;2023-05-10T14:53:12;15.43;;;14.32;;
77944;SDS011;67142;47.404;-1.384;2023-05-10T14:55:38;15.88;;;14.68;;
77944;SDS011;67142;47.404;-1.384;2023-05-10T14:58:04;14.90;;;13.80;;
77944;SDS011;67142;47.404;-1.384;2023-05-10T15:00:30;14.40;;;13.23;;
77944;SDS011;67142;47.404;-1.384;2023-05-10T15:02:56;15.57;;;14.27;;
77944;SDS011;67142;47.404;-1.384;2023-05-10T15:05:22;15.18;;;14.05;;